WLS1313 EGFF-EINN
Flight info
| Callsign | WLS1313 |
|---|---|
| Flight time | 0h 54m |
| Altitude | 28000 |
| Route | BCN P4 FELCA DCT NICXI DCT OFSOX DCT SLANY DCT TIPUR TIPUR2D |
| Aircraft | A320/M-SDE3FGHIRWY/LB1 |
Departure
| Time | 2026-05-01 08:04 |
|---|---|
| Airport | Cardiff International Airport (EGFF) |
Arrival
| Time | 2026-05-01 08:58 |
|---|---|
| Airport | Shannon Airport (EINN) |
| Time | Latitude | Longitude | Altitude | Speed | Heading |
|---|---|---|---|---|---|
| 2026-05-01 07:56 | 51.39761 | -3.33889 | 221 ft | 0 kts | 81° |
| 2026-05-01 07:57 | 51.39758 | -3.33922 | 221 ft | 4 kts | 81° |
| 2026-05-01 07:58 | 51.39751 | -3.34006 | 221 ft | 4 kts | 91° |
| 2026-05-01 07:58 | 51.39755 | -3.34040 | 221 ft | 0 kts | 117° |
| 2026-05-01 08:00 | 51.39745 | -3.34008 | 224 ft | 9 kts | 117° |
| 2026-05-01 08:01 | 51.39603 | -3.33560 | 222 ft | 18 kts | 115° |
| 2026-05-01 08:01 | 51.39543 | -3.33369 | 220 ft | 19 kts | 117° |
| 2026-05-01 08:01 | 51.39496 | -3.33219 | 222 ft | 15 kts | 116° |
| 2026-05-01 08:02 | 51.39342 | -3.32915 | 223 ft | 20 kts | 135° |
| 2026-05-01 08:02 | 51.39274 | -3.32813 | 216 ft | 7 kts | 147° |
| 2026-05-01 08:03 | 51.39199 | -3.32846 | 218 ft | 5 kts | 248° |
| 2026-05-01 08:03 | 51.39207 | -3.32892 | 218 ft | 0 kts | 296° |
| 2026-05-01 08:03 | 51.39222 | -3.32938 | 221 ft | 25 kts | 297° |
| 2026-05-01 08:04 | 51.39787 | -3.34731 | 224 ft | 143 kts | 296° |
| 2026-05-01 08:04 | 51.40720 | -3.37794 | 1269 ft | 154 kts | 294° |
| 2026-05-01 08:05 | 51.41671 | -3.41112 | 2116 ft | 180 kts | 294° |
| 2026-05-01 08:05 | 51.42241 | -3.43041 | 2404 ft | 204 kts | 295° |
| 2026-05-01 08:05 | 51.42907 | -3.45197 | 2759 ft | 227 kts | 297° |
| 2026-05-01 08:06 | 51.45458 | -3.48706 | 3872 ft | 261 kts | 342° |
| 2026-05-01 08:06 | 51.49059 | -3.48178 | 5486 ft | 274 kts | 27° |
| 2026-05-01 08:07 | 51.52369 | -3.45039 | 5845 ft | 276 kts | 30° |
| 2026-05-01 08:07 | 51.55676 | -3.41931 | 5853 ft | 275 kts | 29° |
| 2026-05-01 08:08 | 51.57335 | -3.40396 | 5851 ft | 275 kts | 29° |
| 2026-05-01 08:08 | 51.60668 | -3.37320 | 6357 ft | 278 kts | 29° |
| 2026-05-01 08:09 | 51.64051 | -3.34195 | 8043 ft | 283 kts | 29° |
| 2026-05-01 08:09 | 51.65777 | -3.32601 | 8826 ft | 286 kts | 29° |
| 2026-05-01 08:09 | 51.67510 | -3.30994 | 9584 ft | 290 kts | 29° |
| 2026-05-01 08:10 | 51.71326 | -3.28524 | 10436 ft | 318 kts | 357° |
| 2026-05-01 08:10 | 51.75064 | -3.32051 | 11340 ft | 332 kts | 300° |
| 2026-05-01 08:11 | 51.76897 | -3.38960 | 12636 ft | 338 kts | 296° |
| 2026-05-01 08:11 | 51.79288 | -3.45592 | 13901 ft | 345 kts | 302° |
| 2026-05-01 08:12 | 51.81846 | -3.52229 | 15072 ft | 351 kts | 297° |
| 2026-05-01 08:12 | 51.82783 | -3.55893 | 15625 ft | 354 kts | 285° |
| 2026-05-01 08:12 | 51.83836 | -3.63735 | 16706 ft | 360 kts | 281° |
| 2026-05-01 08:13 | 51.84345 | -3.67719 | 17264 ft | 363 kts | 281° |
| 2026-05-01 08:13 | 51.84858 | -3.71731 | 17799 ft | 366 kts | 281° |
| 2026-05-01 08:13 | 51.85898 | -3.79856 | 18836 ft | 372 kts | 281° |
| 2026-05-01 08:14 | 51.86424 | -3.83974 | 19352 ft | 375 kts | 281° |
| 2026-05-01 08:14 | 51.86953 | -3.88117 | 19892 ft | 377 kts | 281° |
| 2026-05-01 08:14 | 51.87481 | -3.92285 | 20397 ft | 380 kts | 281° |
| 2026-05-01 08:14 | 51.88012 | -3.96482 | 20874 ft | 383 kts | 281° |
| 2026-05-01 08:15 | 51.88548 | -4.00714 | 21335 ft | 385 kts | 281° |
| 2026-05-01 08:15 | 51.89624 | -4.09258 | 22192 ft | 390 kts | 281° |
| 2026-05-01 08:15 | 51.90167 | -4.13575 | 22629 ft | 393 kts | 281° |
| 2026-05-01 08:16 | 51.90714 | -4.17922 | 23046 ft | 395 kts | 281° |
| 2026-05-01 08:16 | 51.91263 | -4.22301 | 23456 ft | 398 kts | 281° |
| 2026-05-01 08:16 | 51.91813 | -4.26716 | 23846 ft | 401 kts | 281° |
| 2026-05-01 08:16 | 51.92362 | -4.31151 | 24258 ft | 403 kts | 281° |
| 2026-05-01 08:17 | 51.92913 | -4.35612 | 24649 ft | 405 kts | 281° |
| 2026-05-01 08:17 | 51.93463 | -4.40105 | 25028 ft | 408 kts | 281° |
| 2026-05-01 08:17 | 51.94014 | -4.44617 | 25389 ft | 410 kts | 281° |
| 2026-05-01 08:17 | 51.94570 | -4.49166 | 25749 ft | 413 kts | 281° |
| 2026-05-01 08:18 | 51.95129 | -4.53750 | 26114 ft | 415 kts | 281° |
| 2026-05-01 08:18 | 51.96251 | -4.62983 | 26813 ft | 420 kts | 281° |
| 2026-05-01 08:19 | 51.97367 | -4.72268 | 27449 ft | 424 kts | 281° |
| 2026-05-01 08:19 | 51.97932 | -4.76993 | 27792 ft | 426 kts | 281° |
| 2026-05-01 08:19 | 51.98494 | -4.81720 | 27972 ft | 428 kts | 281° |
| 2026-05-01 08:20 | 51.99600 | -4.91091 | 28015 ft | 425 kts | 281° |
| 2026-05-01 08:20 | 52.00157 | -4.95837 | 27999 ft | 424 kts | 281° |
| 2026-05-01 08:20 | 52.00709 | -5.00544 | 27999 ft | 423 kts | 281° |
| 2026-05-01 08:20 | 52.01260 | -5.05231 | 27997 ft | 423 kts | 281° |
| 2026-05-01 08:21 | 52.01802 | -5.09857 | 27998 ft | 423 kts | 281° |
| 2026-05-01 08:21 | 52.02918 | -5.19229 | 28013 ft | 422 kts | 284° |
| 2026-05-01 08:22 | 52.04730 | -5.28369 | 27997 ft | 422 kts | 288° |
| 2026-05-01 08:22 | 52.05651 | -5.32903 | 27998 ft | 422 kts | 288° |
| 2026-05-01 08:22 | 52.06567 | -5.37434 | 28006 ft | 422 kts | 288° |
| 2026-05-01 08:22 | 52.07466 | -5.41909 | 28000 ft | 422 kts | 288° |
| 2026-05-01 08:23 | 52.08374 | -5.46465 | 27999 ft | 422 kts | 288° |
| 2026-05-01 08:23 | 52.10176 | -5.55530 | 27999 ft | 422 kts | 288° |
| 2026-05-01 08:24 | 52.11988 | -5.64638 | 28000 ft | 422 kts | 288° |
| 2026-05-01 08:24 | 52.12895 | -5.69196 | 28000 ft | 422 kts | 288° |
| 2026-05-01 08:24 | 52.13790 | -5.73705 | 28012 ft | 422 kts | 288° |
| 2026-05-01 08:25 | 52.15585 | -5.82819 | 28014 ft | 423 kts | 287° |
| 2026-05-01 08:25 | 52.17394 | -5.91955 | 28008 ft | 423 kts | 288° |
| 2026-05-01 08:26 | 52.19215 | -6.01048 | 28011 ft | 423 kts | 288° |
| 2026-05-01 08:26 | 52.21026 | -6.10155 | 28014 ft | 423 kts | 288° |
| 2026-05-01 08:27 | 52.22823 | -6.19287 | 28015 ft | 423 kts | 287° |
| 2026-05-01 08:27 | 52.24606 | -6.28371 | 28016 ft | 423 kts | 287° |
| 2026-05-01 08:28 | 52.26395 | -6.37507 | 28009 ft | 423 kts | 287° |
| 2026-05-01 08:28 | 52.28183 | -6.46726 | 28012 ft | 423 kts | 287° |
| 2026-05-01 08:29 | 52.29936 | -6.55824 | 27998 ft | 423 kts | 287° |
| 2026-05-01 08:29 | 52.30814 | -6.60396 | 28000 ft | 423 kts | 287° |
| 2026-05-01 08:29 | 52.31691 | -6.64974 | 27810 ft | 422 kts | 287° |
| 2026-05-01 08:29 | 52.32569 | -6.69540 | 27559 ft | 419 kts | 287° |
| 2026-05-01 08:30 | 52.33439 | -6.74074 | 27312 ft | 417 kts | 287° |
| 2026-05-01 08:30 | 52.34298 | -6.78560 | 26890 ft | 412 kts | 287° |
| 2026-05-01 08:30 | 52.35149 | -6.83025 | 26352 ft | 409 kts | 287° |
| 2026-05-01 08:30 | 52.35989 | -6.87451 | 25849 ft | 406 kts | 287° |
| 2026-05-01 08:31 | 52.36818 | -6.91829 | 25339 ft | 403 kts | 287° |
| 2026-05-01 08:31 | 52.37643 | -6.96202 | 24865 ft | 400 kts | 287° |
| 2026-05-01 08:31 | 52.38454 | -7.00522 | 24388 ft | 396 kts | 287° |
| 2026-05-01 08:31 | 52.39264 | -7.04829 | 23924 ft | 393 kts | 287° |
| 2026-05-01 08:32 | 52.40065 | -7.09083 | 23467 ft | 390 kts | 287° |
| 2026-05-01 08:32 | 52.40862 | -7.13326 | 23029 ft | 387 kts | 287° |
| 2026-05-01 08:32 | 52.41646 | -7.17520 | 22587 ft | 384 kts | 287° |
| 2026-05-01 08:32 | 52.42419 | -7.21681 | 22144 ft | 381 kts | 287° |
| 2026-05-01 08:33 | 52.43186 | -7.25830 | 21694 ft | 378 kts | 287° |
| 2026-05-01 08:33 | 52.43944 | -7.29925 | 21258 ft | 375 kts | 287° |
| 2026-05-01 08:33 | 52.44699 | -7.34007 | 20802 ft | 372 kts | 287° |
| 2026-05-01 08:33 | 52.45446 | -7.38036 | 20354 ft | 369 kts | 287° |
| 2026-05-01 08:34 | 52.46193 | -7.42053 | 19901 ft | 366 kts | 287° |
| 2026-05-01 08:34 | 52.46928 | -7.46022 | 19433 ft | 363 kts | 287° |
| 2026-05-01 08:34 | 52.47655 | -7.49981 | 18956 ft | 361 kts | 286° |
| 2026-05-01 08:34 | 52.48369 | -7.53903 | 18493 ft | 358 kts | 286° |
| 2026-05-01 08:35 | 52.49082 | -7.57813 | 18002 ft | 356 kts | 286° |
| 2026-05-01 08:35 | 52.49788 | -7.61687 | 17546 ft | 354 kts | 286° |
| 2026-05-01 08:35 | 52.50488 | -7.65534 | 17076 ft | 352 kts | 286° |
| 2026-05-01 08:35 | 52.51189 | -7.69384 | 16594 ft | 350 kts | 286° |
| 2026-05-01 08:36 | 52.51881 | -7.73182 | 16132 ft | 347 kts | 286° |
| 2026-05-01 08:36 | 52.52570 | -7.76975 | 15660 ft | 345 kts | 286° |
| 2026-05-01 08:36 | 52.53252 | -7.80739 | 15183 ft | 343 kts | 286° |
| 2026-05-01 08:36 | 52.53929 | -7.84483 | 14725 ft | 341 kts | 286° |
| 2026-05-01 08:37 | 52.54596 | -7.88204 | 14271 ft | 339 kts | 286° |
| 2026-05-01 08:37 | 52.55255 | -7.91916 | 13793 ft | 337 kts | 286° |
| 2026-05-01 08:37 | 52.55901 | -7.95559 | 13337 ft | 335 kts | 286° |
| 2026-05-01 08:37 | 52.56553 | -7.99230 | 12876 ft | 333 kts | 286° |
| 2026-05-01 08:38 | 52.57200 | -8.02869 | 12417 ft | 332 kts | 286° |
| 2026-05-01 08:38 | 52.57857 | -8.06552 | 11950 ft | 330 kts | 286° |
| 2026-05-01 08:38 | 52.58550 | -8.10073 | 11505 ft | 328 kts | 292° |
| 2026-05-01 08:38 | 52.59665 | -8.13396 | 11047 ft | 327 kts | 305° |
| 2026-05-01 08:39 | 52.61132 | -8.16178 | 10599 ft | 326 kts | 314° |
| 2026-05-01 08:39 | 52.62721 | -8.18791 | 10351 ft | 319 kts | 314° |
| 2026-05-01 08:39 | 52.64257 | -8.21325 | 10224 ft | 308 kts | 314° |
| 2026-05-01 08:39 | 52.65744 | -8.23783 | 10097 ft | 298 kts | 314° |
| 2026-05-01 08:40 | 52.68607 | -8.28518 | 9641 ft | 288 kts | 314° |
| 2026-05-01 08:40 | 52.70017 | -8.30850 | 9277 ft | 288 kts | 314° |
| 2026-05-01 08:40 | 52.71433 | -8.33199 | 8882 ft | 289 kts | 314° |
| 2026-05-01 08:41 | 52.72845 | -8.35545 | 8506 ft | 289 kts | 314° |
| 2026-05-01 08:41 | 52.74265 | -8.37912 | 8116 ft | 290 kts | 314° |
| 2026-05-01 08:41 | 52.75680 | -8.40278 | 7727 ft | 291 kts | 314° |
| 2026-05-01 08:41 | 52.77105 | -8.42659 | 7337 ft | 291 kts | 314° |
| 2026-05-01 08:42 | 52.78523 | -8.45030 | 6941 ft | 291 kts | 314° |
| 2026-05-01 08:42 | 52.79950 | -8.47412 | 6541 ft | 291 kts | 314° |
| 2026-05-01 08:42 | 52.81369 | -8.49785 | 6143 ft | 290 kts | 314° |
| 2026-05-01 08:42 | 52.82790 | -8.52166 | 5738 ft | 290 kts | 314° |
| 2026-05-01 08:43 | 52.84201 | -8.54532 | 5353 ft | 289 kts | 314° |
| 2026-05-01 08:43 | 52.85468 | -8.57096 | 4947 ft | 287 kts | 295° |
| 2026-05-01 08:43 | 52.85826 | -8.60278 | 4523 ft | 286 kts | 263° |
| 2026-05-01 08:43 | 52.85101 | -8.63305 | 4146 ft | 285 kts | 236° |
| 2026-05-01 08:44 | 52.83726 | -8.65625 | 3833 ft | 283 kts | 211° |
| 2026-05-01 08:44 | 52.81971 | -8.67052 | 3509 ft | 280 kts | 210° |
| 2026-05-01 08:44 | 52.80608 | -8.69244 | 3171 ft | 275 kts | 241° |
| 2026-05-01 08:44 | 52.79750 | -8.72080 | 2815 ft | 275 kts | 239° |
| 2026-05-01 08:45 | 52.78629 | -8.74623 | 2455 ft | 274 kts | 231° |
| 2026-05-01 08:45 | 52.77432 | -8.77063 | 2091 ft | 274 kts | 232° |
| 2026-05-01 08:45 | 52.76268 | -8.79518 | 1725 ft | 266 kts | 233° |
| 2026-05-01 08:45 | 52.75160 | -8.81893 | 1376 ft | 255 kts | 233° |
| 2026-05-01 08:46 | 52.74135 | -8.84079 | 1515 ft | 233 kts | 233° |
| 2026-05-01 08:46 | 52.73086 | -8.86307 | 1986 ft | 262 kts | 233° |
| 2026-05-01 08:46 | 52.72017 | -8.88583 | 2565 ft | 233 kts | 233° |
| 2026-05-01 08:46 | 52.71222 | -8.90738 | 2868 ft | 223 kts | 248° |
| 2026-05-01 08:47 | 52.70823 | -8.93250 | 2924 ft | 234 kts | 265° |
| 2026-05-01 08:47 | 52.71074 | -8.95928 | 2933 ft | 235 kts | 291° |
| 2026-05-01 08:47 | 52.71975 | -8.98157 | 2937 ft | 237 kts | 320° |
| 2026-05-01 08:47 | 52.73440 | -8.99280 | 2938 ft | 240 kts | 352° |
| 2026-05-01 08:48 | 52.75080 | -8.98966 | 2931 ft | 240 kts | 22° |
| 2026-05-01 08:48 | 52.76411 | -8.97422 | 2930 ft | 226 kts | 48° |
| 2026-05-01 08:48 | 52.77358 | -8.95453 | 2931 ft | 215 kts | 53° |
| 2026-05-01 08:48 | 52.78233 | -8.93459 | 2929 ft | 214 kts | 54° |
| 2026-05-01 08:49 | 52.79087 | -8.91484 | 2937 ft | 214 kts | 54° |
| 2026-05-01 08:49 | 52.79952 | -8.89472 | 2937 ft | 214 kts | 54° |
| 2026-05-01 08:49 | 52.80807 | -8.87482 | 2936 ft | 209 kts | 54° |
| 2026-05-01 08:49 | 52.81635 | -8.85550 | 2929 ft | 204 kts | 54° |
| 2026-05-01 08:50 | 52.82454 | -8.83635 | 2934 ft | 204 kts | 54° |
| 2026-05-01 08:50 | 52.83272 | -8.81719 | 2934 ft | 204 kts | 54° |
| 2026-05-01 08:50 | 52.84089 | -8.79806 | 2933 ft | 204 kts | 54° |
| 2026-05-01 08:50 | 52.84908 | -8.77888 | 2930 ft | 202 kts | 54° |
| 2026-05-01 08:51 | 52.85701 | -8.76028 | 2939 ft | 196 kts | 54° |
| 2026-05-01 08:51 | 52.86275 | -8.74004 | 2931 ft | 193 kts | 77° |
| 2026-05-01 08:51 | 52.86281 | -8.71849 | 2921 ft | 187 kts | 112° |
| 2026-05-01 08:51 | 52.85649 | -8.69988 | 2943 ft | 187 kts | 130° |
| 2026-05-01 08:52 | 52.84661 | -8.68708 | 2956 ft | 178 kts | 161° |
| 2026-05-01 08:52 | 52.83466 | -8.68463 | 2939 ft | 172 kts | 192° |
| 2026-05-01 08:52 | 52.82353 | -8.69131 | 2941 ft | 170 kts | 205° |
| 2026-05-01 08:52 | 52.81311 | -8.69872 | 2940 ft | 155 kts | 205° |
| 2026-05-01 08:53 | 52.80704 | -8.70404 | 2916 ft | 143 kts | 222° |
| 2026-05-01 08:53 | 52.80093 | -8.71599 | 2847 ft | 132 kts | 229° |
| 2026-05-01 08:53 | 52.79500 | -8.72745 | 2716 ft | 132 kts | 232° |
| 2026-05-01 08:53 | 52.79338 | -8.73069 | 2662 ft | 133 kts | 232° |
| 2026-05-01 08:54 | 52.78948 | -8.73863 | 2565 ft | 133 kts | 233° |
| 2026-05-01 08:54 | 52.78379 | -8.75049 | 2385 ft | 132 kts | 233° |
| 2026-05-01 08:55 | 52.77816 | -8.76236 | 2208 ft | 132 kts | 233° |
| 2026-05-01 08:55 | 52.77255 | -8.77429 | 2040 ft | 131 kts | 234° |
| 2026-05-01 08:55 | 52.76695 | -8.78613 | 1872 ft | 131 kts | 233° |
| 2026-05-01 08:55 | 52.76129 | -8.79793 | 1676 ft | 130 kts | 233° |
| 2026-05-01 08:56 | 52.75568 | -8.80965 | 1522 ft | 130 kts | 233° |
| 2026-05-01 08:56 | 52.75012 | -8.82145 | 1423 ft | 131 kts | 233° |
| 2026-05-01 08:56 | 52.74453 | -8.83314 | 1245 ft | 128 kts | 234° |
| 2026-05-01 08:56 | 52.73931 | -8.84490 | 1019 ft | 126 kts | 236° |
| 2026-05-01 08:57 | 52.73413 | -8.85652 | 749 ft | 125 kts | 233° |
| 2026-05-01 08:57 | 52.72864 | -8.86781 | 634 ft | 127 kts | 233° |
| 2026-05-01 08:57 | 52.72336 | -8.87930 | 474 ft | 128 kts | 233° |
| 2026-05-01 08:57 | 52.71779 | -8.89094 | 347 ft | 129 kts | 233° |
| 2026-05-01 08:58 | 52.71248 | -8.90251 | 123 ft | 128 kts | 233° |
| 2026-05-01 08:58 | 52.70720 | -8.91381 | 12 ft | 116 kts | 233° |
| 2026-05-01 08:58 | 52.70306 | -8.92258 | 19 ft | 79 kts | 233° |
| 2026-05-01 08:58 | 52.70040 | -8.92815 | 20 ft | 43 kts | 230° |
| 2026-05-01 08:59 | 52.69902 | -8.92944 | 23 ft | 21 kts | 145° |
| 2026-05-01 08:59 | 52.69804 | -8.92782 | 22 ft | 19 kts | 133° |
| 2026-05-01 08:59 | 52.69708 | -8.92627 | 22 ft | 20 kts | 134° |
| 2026-05-01 08:59 | 52.69605 | -8.92467 | 22 ft | 21 kts | 136° |
| 2026-05-01 09:00 | 52.69515 | -8.92286 | 21 ft | 20 kts | 115° |
| 2026-05-01 09:00 | 52.69465 | -8.92068 | 23 ft | 17 kts | 123° |
| 2026-05-01 09:00 | 52.69378 | -8.92057 | 21 ft | 10 kts | 185° |
| 2026-05-01 09:00 | 52.69364 | -8.92060 | 21 ft | 0 kts | 186° |